sensor_id;sensor_type;location;lat;lon;timestamp;temperature;humidity
42339;DHT22;27993;45.392;10.918;2023-09-19T00:00:03;21.60;99.90
42339;DHT22;27993;45.392;10.918;2023-09-19T00:02:34;21.50;99.90
42339;DHT22;27993;45.392;10.918;2023-09-19T00:05:06;21.50;99.90
42339;DHT22;27993;45.392;10.918;2023-09-19T00:07:39;21.50;99.90
42339;DHT22;27993;45.392;10.918;2023-09-19T00:10:10;21.50;99.90
42339;DHT22;27993;45.392;10.918;2023-09-19T00:12:43;21.50;99.90
42339;DHT22;27993;45.392;10.918;2023-09-19T00:15:14;21.50;99.90
42339;DHT22;27993;45.392;10.918;2023-09-19T00:17:48;21.50;99.90
42339;DHT22;27993;45.392;10.918;2023-09-19T00:20:18;21.40;99.90
42339;DHT22;27993;45.392;10.918;2023-09-19T00:22:50;21.40;99.90
42339;DHT22;27993;45.392;10.918;2023-09-19T00:25:23;21.30;99.90
42339;DHT22;27993;45.392;10.918;2023-09-19T00:27:56;21.20;99.90
42339;DHT22;27993;45.392;10.918;2023-09-19T00:30:26;21.20;99.90
42339;DHT22;27993;45.392;10.918;2023-09-19T00:32:57;21.20;99.90
42339;DHT22;27993;45.392;10.918;2023-09-19T00:35:27;21.20;99.90
42339;DHT22;27993;45.392;10.918;2023-09-19T00:37:58;21.10;99.90
42339;DHT22;27993;45.392;10.918;2023-09-19T00:40:29;21.00;99.90
42339;DHT22;27993;45.392;10.918;2023-09-19T00:43:00;21.10;99.90
42339;DHT22;27993;45.392;10.918;2023-09-19T00:45:31;21.10;99.90
42339;DHT22;27993;45.392;10.918;2023-09-19T00:48:02;21.10;99.90
42339;DHT22;27993;45.392;10.918;2023-09-19T00:50:34;21.10;99.90
42339;DHT22;27993;45.392;10.918;2023-09-19T00:53:05;21.10;99.90
42339;DHT22;27993;45.392;10.918;2023-09-19T00:55:40;21.10;99.90
42339;DHT22;27993;45.392;10.918;2023-09-19T00:58:12;21.20;99.90
42339;DHT22;27993;45.392;10.918;2023-09-19T01:00:44;21.20;99.90
42339;DHT22;27993;45.392;10.918;2023-09-19T01:03:15;21.20;99.90
42339;DHT22;27993;45.392;10.918;2023-09-19T01:05:45;21.20;99.90
42339;DHT22;27993;45.392;10.918;2023-09-19T01:08:16;21.20;99.90
42339;DHT22;27993;45.392;10.918;2023-09-19T01:10:52;21.20;99.90
42339;DHT22;27993;45.392;10.918;2023-09-19T01:13:42;21.20;99.90
42339;DHT22;27993;45.392;10.918;2023-09-19T01:20:36;21.20;99.90
42339;DHT22;27993;45.392;10.918;2023-09-19T01:22:53;21.10;99.90
42339;DHT22;27993;45.392;10.918;2023-09-19T01:25:49;21.00;99.90
42339;DHT22;27993;45.392;10.918;2023-09-19T01:28:34;21.00;99.90
42339;DHT22;27993;45.392;10.918;2023-09-19T01:31:11;21.00;99.90
42339;DHT22;27993;45.392;10.918;2023-09-19T01:33:56;21.10;99.90
42339;DHT22;27993;45.392;10.918;2023-09-19T01:36:37;21.20;99.90
42339;DHT22;27993;45.392;10.918;2023-09-19T01:39:11;21.20;99.90
42339;DHT22;27993;45.392;10.918;2023-09-19T01:42:12;21.10;99.90
42339;DHT22;27993;45.392;10.918;2023-09-19T01:47:35;21.20;99.90
42339;DHT22;27993;45.392;10.918;2023-09-19T01:50:17;21.10;99.90
42339;DHT22;27993;45.392;10.918;2023-09-19T01:53:02;21.10;99.90
42339;DHT22;27993;45.392;10.918;2023-09-19T01:55:39;21.10;99.90
42339;DHT22;27993;45.392;10.918;2023-09-19T01:58:27;21.10;99.90
42339;DHT22;27993;45.392;10.918;2023-09-19T02:01:01;21.10;99.90
42339;DHT22;27993;45.392;10.918;2023-09-19T02:03:34;21.20;99.90
42339;DHT22;27993;45.392;10.918;2023-09-19T02:06:05;21.20;99.90
42339;DHT22;27993;45.392;10.918;2023-09-19T02:08:41;21.20;99.90
42339;DHT22;27993;45.392;10.918;2023-09-19T02:11:12;21.20;99.90
42339;DHT22;27993;45.392;10.918;2023-09-19T02:13:43;21.20;99.90
42339;DHT22;27993;45.392;10.918;2023-09-19T02:16:16;21.20;99.90
42339;DHT22;27993;45.392;10.918;2023-09-19T02:18:50;21.20;99.90
42339;DHT22;27993;45.392;10.918;2023-09-19T02:21:21;21.20;99.90
42339;DHT22;27993;45.392;10.918;2023-09-19T02:23:52;21.20;99.90
42339;DHT22;27993;45.392;10.918;2023-09-19T02:26:22;21.20;99.90
42339;DHT22;27993;45.392;10.918;2023-09-19T02:28:53;21.20;99.90
42339;DHT22;27993;45.392;10.918;2023-09-19T02:31:24;21.20;99.90
42339;DHT22;27993;45.392;10.918;2023-09-19T02:33:55;21.20;99.90
42339;DHT22;27993;45.392;10.918;2023-09-19T02:36:26;21.20;99.90
42339;DHT22;27993;45.392;10.918;2023-09-19T02:38:57;21.20;99.90
42339;DHT22;27993;45.392;10.918;2023-09-19T02:41:28;21.20;99.90
42339;DHT22;27993;45.392;10.918;2023-09-19T02:43:59;21.20;99.90
42339;DHT22;27993;45.392;10.918;2023-09-19T02:46:32;21.20;99.90
42339;DHT22;27993;45.392;10.918;2023-09-19T02:49:03;21.10;99.90
42339;DHT22;27993;45.392;10.918;2023-09-19T02:51:37;21.10;99.90
42339;DHT22;27993;45.392;10.918;2023-09-19T02:54:08;21.00;99.90
42339;DHT22;27993;45.392;10.918;2023-09-19T02:56:38;20.90;99.90
42339;DHT22;27993;45.392;10.918;2023-09-19T02:59:09;20.90;99.90
42339;DHT22;27993;45.392;10.918;2023-09-19T03:01:42;21.00;99.90
42339;DHT22;27993;45.392;10.918;2023-09-19T03:04:14;20.90;99.90
42339;DHT22;27993;45.392;10.918;2023-09-19T03:06:50;21.00;99.90
42339;DHT22;27993;45.392;10.918;2023-09-19T03:09:21;20.90;99.90
42339;DHT22;27993;45.392;10.918;2023-09-19T03:11:53;20.90;99.90
42339;DHT22;27993;45.392;10.918;2023-09-19T03:14:25;20.80;99.90
42339;DHT22;27993;45.392;10.918;2023-09-19T03:16:55;20.80;99.90
42339;DHT22;27993;45.392;10.918;2023-09-19T03:19:26;20.80;99.90
42339;DHT22;27993;45.392;10.918;2023-09-19T03:21:57;20.80;99.90
42339;DHT22;27993;45.392;10.918;2023-09-19T03:24:28;20.80;99.90
42339;DHT22;27993;45.392;10.918;2023-09-19T03:26:59;20.70;99.90
42339;DHT22;27993;45.392;10.918;2023-09-19T03:29:30;20.70;99.90
42339;DHT22;27993;45.392;10.918;2023-09-19T03:32:01;20.70;99.90
42339;DHT22;27993;45.392;10.918;2023-09-19T03:34:32;20.70;99.90
42339;DHT22;27993;45.392;10.918;2023-09-19T03:37:03;20.70;99.90
42339;DHT22;27993;45.392;10.918;2023-09-19T03:39:34;20.70;99.90
42339;DHT22;27993;45.392;10.918;2023-09-19T03:42:04;20.70;99.90
42339;DHT22;27993;45.392;10.918;2023-09-19T03:44:35;20.70;99.90
42339;DHT22;27993;45.392;10.918;2023-09-19T03:47:06;20.70;99.90
42339;DHT22;27993;45.392;10.918;2023-09-19T03:49:37;20.70;99.90
42339;DHT22;27993;45.392;10.918;2023-09-19T03:52:07;20.70;99.90
42339;DHT22;27993;45.392;10.918;2023-09-19T03:54:38;20.80;99.90
42339;DHT22;27993;45.392;10.918;2023-09-19T03:57:11;20.70;99.90
42339;DHT22;27993;45.392;10.918;2023-09-19T03:59:43;20.70;99.90
42339;DHT22;27993;45.392;10.918;2023-09-19T04:02:13;20.70;99.90
42339;DHT22;27993;45.392;10.918;2023-09-19T04:04:52;20.70;99.90
42339;DHT22;27993;45.392;10.918;2023-09-19T04:07:23;20.70;99.90
42339;DHT22;27993;45.392;10.918;2023-09-19T04:09:53;20.70;99.90
42339;DHT22;27993;45.392;10.918;2023-09-19T04:12:24;20.70;99.90
42339;DHT22;27993;45.392;10.918;2023-09-19T04:14:54;20.70;99.90
42339;DHT22;27993;45.392;10.918;2023-09-19T04:17:25;20.80;99.90
42339;DHT22;27993;45.392;10.918;2023-09-19T04:19:56;20.70;99.90
42339;DHT22;27993;45.392;10.918;2023-09-19T04:22:26;20.70;99.90
42339;DHT22;27993;45.392;10.918;2023-09-19T04:24:57;20.70;99.90
42339;DHT22;27993;45.392;10.918;2023-09-19T04:27:27;20.70;99.90
42339;DHT22;27993;45.392;10.918;2023-09-19T04:29:59;20.70;99.90
42339;DHT22;27993;45.392;10.918;2023-09-19T04:32:30;20.70;99.90
42339;DHT22;27993;45.392;10.918;2023-09-19T04:35:02;20.70;99.90
42339;DHT22;27993;45.392;10.918;2023-09-19T04:37:40;20.70;99.90
42339;DHT22;27993;45.392;10.918;2023-09-19T04:40:11;20.80;99.90
42339;DHT22;27993;45.392;10.918;2023-09-19T04:42:53;20.80;99.90
42339;DHT22;27993;45.392;10.918;2023-09-19T04:45:27;20.70;99.90
42339;DHT22;27993;45.392;10.918;2023-09-19T04:47:58;20.70;99.90
42339;DHT22;27993;45.392;10.918;2023-09-19T04:50:29;20.80;99.90
42339;DHT22;27993;45.392;10.918;2023-09-19T04:52:59;20.70;99.90
42339;DHT22;27993;45.392;10.918;2023-09-19T04:55:31;20.70;99.90
42339;DHT22;27993;45.392;10.918;2023-09-19T04:58:03;20.70;99.90
42339;DHT22;27993;45.392;10.918;2023-09-19T05:00:34;20.70;99.90
42339;DHT22;27993;45.392;10.918;2023-09-19T05:03:05;20.70;99.90
42339;DHT22;27993;45.392;10.918;2023-09-19T05:05:36;20.70;99.90
42339;DHT22;27993;45.392;10.918;2023-09-19T05:08:08;20.70;99.90
42339;DHT22;27993;45.392;10.918;2023-09-19T05:10:40;20.60;99.90
42339;DHT22;27993;45.392;10.918;2023-09-19T05:13:11;20.80;99.90
42339;DHT22;27993;45.392;10.918;2023-09-19T05:15:42;20.80;99.90
42339;DHT22;27993;45.392;10.918;2023-09-19T05:18:13;20.80;99.90
42339;DHT22;27993;45.392;10.918;2023-09-19T05:20:43;20.90;99.90
42339;DHT22;27993;45.392;10.918;2023-09-19T05:23:14;20.90;99.90
42339;DHT22;27993;45.392;10.918;2023-09-19T05:25:44;21.00;99.90
42339;DHT22;27993;45.392;10.918;2023-09-19T05:28:15;21.20;99.90
42339;DHT22;27993;45.392;10.918;2023-09-19T05:30:46;21.20;99.90
42339;DHT22;27993;45.392;10.918;2023-09-19T05:33:17;21.40;99.90
42339;DHT22;27993;45.392;10.918;2023-09-19T05:35:48;21.70;99.90
42339;DHT22;27993;45.392;10.918;2023-09-19T05:38:19;21.90;99.90
42339;DHT22;27993;45.392;10.918;2023-09-19T05:40:50;22.20;99.90
42339;DHT22;27993;45.392;10.918;2023-09-19T05:43:21;22.40;99.90
42339;DHT22;27993;45.392;10.918;2023-09-19T05:45:52;22.70;99.90
42339;DHT22;27993;45.392;10.918;2023-09-19T05:48:22;23.10;99.90
42339;DHT22;27993;45.392;10.918;2023-09-19T05:50:53;23.30;99.90
42339;DHT22;27993;45.392;10.918;2023-09-19T05:53:23;23.70;99.90
42339;DHT22;27993;45.392;10.918;2023-09-19T05:55:54;24.00;99.90
42339;DHT22;27993;45.392;10.918;2023-09-19T05:58:25;24.40;99.90
42339;DHT22;27993;45.392;10.918;2023-09-19T06:00:56;24.60;99.90
42339;DHT22;27993;45.392;10.918;2023-09-19T06:03:27;24.90;99.90
42339;DHT22;27993;45.392;10.918;2023-09-19T06:05:59;25.30;99.90
42339;DHT22;27993;45.392;10.918;2023-09-19T06:08:30;25.50;99.90
42339;DHT22;27993;45.392;10.918;2023-09-19T06:11:01;25.90;99.90
42339;DHT22;27993;45.392;10.918;2023-09-19T06:13:32;26.10;99.90
42339;DHT22;27993;45.392;10.918;2023-09-19T06:16:04;26.40;99.90
42339;DHT22;27993;45.392;10.918;2023-09-19T06:18:35;26.80;99.90
42339;DHT22;27993;45.392;10.918;2023-09-19T06:21:06;27.10;99.90
42339;DHT22;27993;45.392;10.918;2023-09-19T06:23:37;27.30;99.90
42339;DHT22;27993;45.392;10.918;2023-09-19T06:26:08;27.80;99.90
42339;DHT22;27993;45.392;10.918;2023-09-19T06:28:40;28.30;99.90
42339;DHT22;27993;45.392;10.918;2023-09-19T06:31:11;28.60;99.90
42339;DHT22;27993;45.392;10.918;2023-09-19T06:33:42;29.10;99.90
42339;DHT22;27993;45.392;10.918;2023-09-19T06:36:13;29.20;99.90
42339;DHT22;27993;45.392;10.918;2023-09-19T06:38:44;29.40;99.90
42339;DHT22;27993;45.392;10.918;2023-09-19T06:41:14;29.60;99.90
42339;DHT22;27993;45.392;10.918;2023-09-19T06:43:47;29.60;99.90
42339;DHT22;27993;45.392;10.918;2023-09-19T06:46:18;30.10;99.90
42339;DHT22;27993;45.392;10.918;2023-09-19T06:48:49;30.20;99.90
42339;DHT22;27993;45.392;10.918;2023-09-19T06:51:20;30.80;99.90
42339;DHT22;27993;45.392;10.918;2023-09-19T06:53:50;31.00;99.90
42339;DHT22;27993;45.392;10.918;2023-09-19T06:56:24;31.20;99.90
42339;DHT22;27993;45.392;10.918;2023-09-19T06:58:56;31.20;99.90
42339;DHT22;27993;45.392;10.918;2023-09-19T07:01:26;31.50;99.90
42339;DHT22;27993;45.392;10.918;2023-09-19T07:03:57;31.80;99.90
42339;DHT22;27993;45.392;10.918;2023-09-19T07:06:28;31.90;99.90
42339;DHT22;27993;45.392;10.918;2023-09-19T07:08:58;32.10;99.90
42339;DHT22;27993;45.392;10.918;2023-09-19T07:11:29;32.30;99.90
42339;DHT22;27993;45.392;10.918;2023-09-19T07:14:01;32.00;99.90
42339;DHT22;27993;45.392;10.918;2023-09-19T07:16:32;32.10;99.90
42339;DHT22;27993;45.392;10.918;2023-09-19T07:19:02;32.90;99.90
42339;DHT22;27993;45.392;10.918;2023-09-19T07:21:33;32.90;99.90
42339;DHT22;27993;45.392;10.918;2023-09-19T07:24:05;32.90;99.90
42339;DHT22;27993;45.392;10.918;2023-09-19T07:26:36;32.40;99.90
42339;DHT22;27993;45.392;10.918;2023-09-19T07:29:07;32.60;99.90
42339;DHT22;27993;45.392;10.918;2023-09-19T07:31:39;33.10;99.90
42339;DHT22;27993;45.392;10.918;2023-09-19T07:34:09;33.70;99.90
42339;DHT22;27993;45.392;10.918;2023-09-19T07:36:40;33.80;99.90
42339;DHT22;27993;45.392;10.918;2023-09-19T07:39:12;34.20;99.90
42339;DHT22;27993;45.392;10.918;2023-09-19T07:41:43;34.20;99.90
42339;DHT22;27993;45.392;10.918;2023-09-19T07:44:13;34.90;99.90
42339;DHT22;27993;45.392;10.918;2023-09-19T07:46:44;34.80;99.90
42339;DHT22;27993;45.392;10.918;2023-09-19T07:49:15;34.80;99.90
42339;DHT22;27993;45.392;10.918;2023-09-19T07:51:45;34.90;99.90
42339;DHT22;27993;45.392;10.918;2023-09-19T07:54:17;34.80;99.90
42339;DHT22;27993;45.392;10.918;2023-09-19T07:56:47;34.90;99.90
42339;DHT22;27993;45.392;10.918;2023-09-19T07:59:18;34.80;99.90
42339;DHT22;27993;45.392;10.918;2023-09-19T08:01:48;33.40;99.90
42339;DHT22;27993;45.392;10.918;2023-09-19T08:04:19;33.80;99.90
42339;DHT22;27993;45.392;10.918;2023-09-19T08:06:50;34.30;99.90
42339;DHT22;27993;45.392;10.918;2023-09-19T08:09:22;34.70;99.90
42339;DHT22;27993;45.392;10.918;2023-09-19T08:11:53;34.90;99.90
42339;DHT22;27993;45.392;10.918;2023-09-19T08:14:24;35.30;99.90
42339;DHT22;27993;45.392;10.918;2023-09-19T08:16:57;35.70;99.90
42339;DHT22;27993;45.392;10.918;2023-09-19T08:19:28;36.00;99.90
42339;DHT22;27993;45.392;10.918;2023-09-19T08:22:00;36.40;99.90
42339;DHT22;27993;45.392;10.918;2023-09-19T08:24:31;36.30;99.90
42339;DHT22;27993;45.392;10.918;2023-09-19T08:27:04;36.40;99.90
42339;DHT22;27993;45.392;10.918;2023-09-19T08:29:36;36.70;99.90
42339;DHT22;27993;45.392;10.918;2023-09-19T08:32:06;36.90;99.90
42339;DHT22;27993;45.392;10.918;2023-09-19T08:34:37;37.40;99.90
42339;DHT22;27993;45.392;10.918;2023-09-19T08:37:08;37.20;99.90
42339;DHT22;27993;45.392;10.918;2023-09-19T08:39:40;37.20;99.90
42339;DHT22;27993;45.392;10.918;2023-09-19T08:42:11;36.50;99.90
42339;DHT22;27993;45.392;10.918;2023-09-19T08:44:43;36.60;99.90
42339;DHT22;27993;45.392;10.918;2023-09-19T08:47:15;36.30;99.90
42339;DHT22;27993;45.392;10.918;2023-09-19T08:52:46;37.20;99.90
42339;DHT22;27993;45.392;10.918;2023-09-19T08:55:18;37.60;99.90
42339;DHT22;27993;45.392;10.918;2023-09-19T08:57:52;37.20;99.90
42339;DHT22;27993;45.392;10.918;2023-09-19T09:00:23;37.20;99.90
42339;DHT22;27993;45.392;10.918;2023-09-19T09:02:56;37.80;99.90
42339;DHT22;27993;45.392;10.918;2023-09-19T09:05:27;38.20;99.90
42339;DHT22;27993;45.392;10.918;2023-09-19T09:07:58;37.50;99.90
42339;DHT22;27993;45.392;10.918;2023-09-19T09:10:30;38.00;99.90
42339;DHT22;27993;45.392;10.918;2023-09-19T09:13:00;38.00;99.90
42339;DHT22;27993;45.392;10.918;2023-09-19T09:15:35;38.20;99.90
42339;DHT22;27993;45.392;10.918;2023-09-19T09:18:06;38.50;99.90
42339;DHT22;27993;45.392;10.918;2023-09-19T09:20:37;38.40;99.90
42339;DHT22;27993;45.392;10.918;2023-09-19T09:23:07;38.20;99.90
42339;DHT22;27993;45.392;10.918;2023-09-19T09:25:52;38.10;99.90
42339;DHT22;27993;45.392;10.918;2023-09-19T09:28:44;38.80;99.90
42339;DHT22;27993;45.392;10.918;2023-09-19T09:31:22;38.90;99.90
42339;DHT22;27993;45.392;10.918;2023-09-19T09:33:56;39.00;99.90
42339;DHT22;27993;45.392;10.918;2023-09-19T09:36:38;39.60;99.90
42339;DHT22;27993;45.392;10.918;2023-09-19T09:39:11;39.30;99.90
42339;DHT22;27993;45.392;10.918;2023-09-19T09:41:55;39.80;99.90
42339;DHT22;27993;45.392;10.918;2023-09-19T09:44:25;40.50;99.90
42339;DHT22;27993;45.392;10.918;2023-09-19T09:46:57;40.80;99.90
42339;DHT22;27993;45.392;10.918;2023-09-19T09:49:51;40.10;99.90
42339;DHT22;27993;45.392;10.918;2023-09-19T09:52:25;39.50;99.90
42339;DHT22;27993;45.392;10.918;2023-09-19T09:55:02;39.40;99.90
42339;DHT22;27993;45.392;10.918;2023-09-19T09:57:37;40.40;99.90
42339;DHT22;27993;45.392;10.918;2023-09-19T10:00:12;40.70;99.90
42339;DHT22;27993;45.392;10.918;2023-09-19T10:02:43;41.90;98.70
42339;DHT22;27993;45.392;10.918;2023-09-19T10:05:20;42.30;98.20
42339;DHT22;27993;45.392;10.918;2023-09-19T10:07:51;42.40;97.90
42339;DHT22;27993;45.392;10.918;2023-09-19T10:10:36;42.40;97.60
42339;DHT22;27993;45.392;10.918;2023-09-19T10:13:14;42.20;97.80
42339;DHT22;27993;45.392;10.918;2023-09-19T10:15:50;42.00;97.70
42339;DHT22;27993;45.392;10.918;2023-09-19T10:18:26;42.60;96.80
42339;DHT22;27993;45.392;10.918;2023-09-19T10:20:59;41.70;96.90
42339;DHT22;27993;45.392;10.918;2023-09-19T10:23:31;42.30;96.60
42339;DHT22;27993;45.392;10.918;2023-09-19T10:26:05;42.20;96.80
42339;DHT22;27993;45.392;10.918;2023-09-19T10:28:37;42.60;96.20
42339;DHT22;27993;45.392;10.918;2023-09-19T10:31:09;42.70;95.50
42339;DHT22;27993;45.392;10.918;2023-09-19T10:33:44;43.10;95.00
42339;DHT22;27993;45.392;10.918;2023-09-19T10:36:16;41.10;95.60
42339;DHT22;27993;45.392;10.918;2023-09-19T10:38:50;40.90;96.60
42339;DHT22;27993;45.392;10.918;2023-09-19T10:41:24;41.50;95.60
42339;DHT22;27993;45.392;10.918;2023-09-19T10:43:56;41.80;95.30
42339;DHT22;27993;45.392;10.918;2023-09-19T10:46:31;42.70;94.80
42339;DHT22;27993;45.392;10.918;2023-09-19T10:49:02;42.60;94.40
42339;DHT22;27993;45.392;10.918;2023-09-19T10:51:41;42.30;94.40
42339;DHT22;27993;45.392;10.918;2023-09-19T10:54:14;42.20;94.10
42339;DHT22;27993;45.392;10.918;2023-09-19T10:56:50;42.60;93.90
42339;DHT22;27993;45.392;10.918;2023-09-19T10:59:22;42.60;93.90
42339;DHT22;27993;45.392;10.918;2023-09-19T11:01:56;41.60;93.60
42339;DHT22;27993;45.392;10.918;2023-09-19T11:04:32;38.60;94.30
42339;DHT22;27993;45.392;10.918;2023-09-19T11:07:11;37.40;96.20
42339;DHT22;27993;45.392;10.918;2023-09-19T11:09:50;36.60;97.30
42339;DHT22;27993;45.392;10.918;2023-09-19T11:27:09;34.10;99.90
42339;DHT22;27993;45.392;10.918;2023-09-19T11:29:41;34.00;99.90
42339;DHT22;27993;45.392;10.918;2023-09-19T11:32:12;34.20;99.90
42339;DHT22;27993;45.392;10.918;2023-09-19T11:34:43;34.40;99.90
42339;DHT22;27993;45.392;10.918;2023-09-19T11:40:21;34.10;99.90
42339;DHT22;27993;45.392;10.918;2023-09-19T11:42:52;34.30;99.90
42339;DHT22;27993;45.392;10.918;2023-09-19T11:48:28;34.40;99.90
42339;DHT22;27993;45.392;10.918;2023-09-19T11:51:00;33.90;99.90
42339;DHT22;27993;45.392;10.918;2023-09-19T11:53:33;33.80;99.90
42339;DHT22;27993;45.392;10.918;2023-09-19T11:56:06;33.60;99.90
42339;DHT22;27993;45.392;10.918;2023-09-19T11:58:41;33.30;99.90
42339;DHT22;27993;45.392;10.918;2023-09-19T12:01:14;33.40;99.90
42339;DHT22;27993;45.392;10.918;2023-09-19T12:03:47;33.30;99.90
42339;DHT22;27993;45.392;10.918;2023-09-19T12:06:20;32.70;99.90
42339;DHT22;27993;45.392;10.918;2023-09-19T12:08:52;32.80;99.90
42339;DHT22;27993;45.392;10.918;2023-09-19T12:11:28;32.80;99.90
42339;DHT22;27993;45.392;10.918;2023-09-19T12:13:59;33.20;99.90
42339;DHT22;27993;45.392;10.918;2023-09-19T12:16:31;32.80;99.90
42339;DHT22;27993;45.392;10.918;2023-09-19T12:19:19;32.90;99.90
42339;DHT22;27993;45.392;10.918;2023-09-19T12:21:54;32.80;99.90
42339;DHT22;27993;45.392;10.918;2023-09-19T12:24:26;32.80;99.90
42339;DHT22;27993;45.392;10.918;2023-09-19T12:27:04;32.60;99.90
42339;DHT22;27993;45.392;10.918;2023-09-19T12:29:46;32.60;99.90
42339;DHT22;27993;45.392;10.918;2023-09-19T12:32:34;32.60;99.90
42339;DHT22;27993;45.392;10.918;2023-09-19T12:35:09;32.50;99.90
42339;DHT22;27993;45.392;10.918;2023-09-19T12:37:51;32.50;99.90
42339;DHT22;27993;45.392;10.918;2023-09-19T12:40:25;32.50;99.90
42339;DHT22;27993;45.392;10.918;2023-09-19T12:42:59;32.60;99.90
42339;DHT22;27993;45.392;10.918;2023-09-19T12:45:31;32.30;99.90
42339;DHT22;27993;45.392;10.918;2023-09-19T12:48:21;32.10;99.90
42339;DHT22;27993;45.392;10.918;2023-09-19T12:51:09;32.10;99.90
42339;DHT22;27993;45.392;10.918;2023-09-19T12:53:44;32.20;99.90
42339;DHT22;27993;45.392;10.918;2023-09-19T12:56:19;32.10;99.90
42339;DHT22;27993;45.392;10.918;2023-09-19T13:01:27;31.90;99.90
42339;DHT22;27993;45.392;10.918;2023-09-19T13:04:14;31.90;99.90
42339;DHT22;27993;45.392;10.918;2023-09-19T13:06:56;31.80;99.90
42339;DHT22;27993;45.392;10.918;2023-09-19T13:09:32;31.80;99.90
42339;DHT22;27993;45.392;10.918;2023-09-19T13:12:34;31.70;99.90
42339;DHT22;27993;45.392;10.918;2023-09-19T13:15:09;31.70;99.90
42339;DHT22;27993;45.392;10.918;2023-09-19T13:17:44;31.50;99.90
42339;DHT22;27993;45.392;10.918;2023-09-19T13:20:25;31.40;99.90
42339;DHT22;27993;45.392;10.918;2023-09-19T13:23:00;31.40;99.90
42339;DHT22;27993;45.392;10.918;2023-09-19T13:25:38;31.00;99.90
42339;DHT22;27993;45.392;10.918;2023-09-19T13:28:10;30.90;99.90
42339;DHT22;27993;45.392;10.918;2023-09-19T13:30:41;30.80;99.90
42339;DHT22;27993;45.392;10.918;2023-09-19T13:33:15;30.80;99.90
42339;DHT22;27993;45.392;10.918;2023-09-19T13:35:51;30.80;99.90
42339;DHT22;27993;45.392;10.918;2023-09-19T13:38:23;30.80;99.90
42339;DHT22;27993;45.392;10.918;2023-09-19T13:40:54;30.80;99.90
42339;DHT22;27993;45.392;10.918;2023-09-19T13:43:24;30.70;99.90
42339;DHT22;27993;45.392;10.918;2023-09-19T13:45:55;30.70;99.90
42339;DHT22;27993;45.392;10.918;2023-09-19T13:48:28;30.60;99.90
42339;DHT22;27993;45.392;10.918;2023-09-19T13:51:01;30.50;99.90
42339;DHT22;27993;45.392;10.918;2023-09-19T13:53:31;30.60;99.90
42339;DHT22;27993;45.392;10.918;2023-09-19T13:56:02;30.60;99.90
42339;DHT22;27993;45.392;10.918;2023-09-19T13:58:33;30.50;99.90
42339;DHT22;27993;45.392;10.918;2023-09-19T14:01:03;30.50;99.90
42339;DHT22;27993;45.392;10.918;2023-09-19T14:03:34;30.60;99.90
42339;DHT22;27993;45.392;10.918;2023-09-19T14:06:06;30.50;99.90
42339;DHT22;27993;45.392;10.918;2023-09-19T14:08:36;30.40;99.90
42339;DHT22;27993;45.392;10.918;2023-09-19T14:11:09;30.30;99.90
42339;DHT22;27993;45.392;10.918;2023-09-19T14:13:40;30.30;99.90
42339;DHT22;27993;45.392;10.918;2023-09-19T14:16:10;30.30;99.90
42339;DHT22;27993;45.392;10.918;2023-09-19T14:18:41;30.30;99.90
42339;DHT22;27993;45.392;10.918;2023-09-19T14:21:12;30.30;99.90
42339;DHT22;27993;45.392;10.918;2023-09-19T14:23:42;30.30;99.90
42339;DHT22;27993;45.392;10.918;2023-09-19T14:26:14;30.20;99.90
42339;DHT22;27993;45.392;10.918;2023-09-19T14:28:46;30.20;99.90
42339;DHT22;27993;45.392;10.918;2023-09-19T14:31:16;30.10;99.90
42339;DHT22;27993;45.392;10.918;2023-09-19T14:33:54;30.00;99.90
42339;DHT22;27993;45.392;10.918;2023-09-19T14:36:25;30.00;99.90
42339;DHT22;27993;45.392;10.918;2023-09-19T14:38:56;29.90;99.90
42339;DHT22;27993;45.392;10.918;2023-09-19T14:41:30;29.90;99.90
42339;DHT22;27993;45.392;10.918;2023-09-19T14:44:03;29.80;99.90
42339;DHT22;27993;45.392;10.918;2023-09-19T14:46:36;29.80;99.90
42339;DHT22;27993;45.392;10.918;2023-09-19T14:49:06;29.80;99.90
42339;DHT22;27993;45.392;10.918;2023-09-19T14:51:38;29.80;99.90
42339;DHT22;27993;45.392;10.918;2023-09-19T14:54:12;29.90;99.90
42339;DHT22;27993;45.392;10.918;2023-09-19T14:56:43;29.90;99.90
42339;DHT22;27993;45.392;10.918;2023-09-19T14:59:13;29.80;99.90
42339;DHT22;27993;45.392;10.918;2023-09-19T15:01:46;29.80;99.90
42339;DHT22;27993;45.392;10.918;2023-09-19T15:04:16;29.80;99.90
42339;DHT22;27993;45.392;10.918;2023-09-19T15:06:48;29.80;99.90
42339;DHT22;27993;45.392;10.918;2023-09-19T15:09:19;29.70;99.90
42339;DHT22;27993;45.392;10.918;2023-09-19T15:11:49;29.70;99.90
42339;DHT22;27993;45.392;10.918;2023-09-19T15:14:23;29.70;99.90
42339;DHT22;27993;45.392;10.918;2023-09-19T15:16:55;29.70;99.90
42339;DHT22;27993;45.392;10.918;2023-09-19T15:19:26;29.70;99.90
42339;DHT22;27993;45.392;10.918;2023-09-19T15:21:56;29.70;99.70
42339;DHT22;27993;45.392;10.918;2023-09-19T15:24:28;29.60;98.90
42339;DHT22;27993;45.392;10.918;2023-09-19T15:26:58;29.60;99.00
42339;DHT22;27993;45.392;10.918;2023-09-19T15:29:29;29.60;99.10
42339;DHT22;27993;45.392;10.918;2023-09-19T15:31:59;29.60;99.80
42339;DHT22;27993;45.392;10.918;2023-09-19T15:34:32;29.60;99.20
42339;DHT22;27993;45.392;10.918;2023-09-19T15:37:03;29.50;99.10
42339;DHT22;27993;45.392;10.918;2023-09-19T15:39:34;29.60;99.60
42339;DHT22;27993;45.392;10.918;2023-09-19T15:42:04;29.50;99.60
42339;DHT22;27993;45.392;10.918;2023-09-19T15:44:35;29.50;99.60
42339;DHT22;27993;45.392;10.918;2023-09-19T15:47:07;29.50;99.90
42339;DHT22;27993;45.392;10.918;2023-09-19T15:49:38;29.50;99.80
42339;DHT22;27993;45.392;10.918;2023-09-19T15:52:09;29.40;99.40
42339;DHT22;27993;45.392;10.918;2023-09-19T15:54:39;29.40;99.90
42339;DHT22;27993;45.392;10.918;2023-09-19T15:57:14;29.30;99.90
42339;DHT22;27993;45.392;10.918;2023-09-19T15:59:45;29.30;99.90
42339;DHT22;27993;45.392;10.918;2023-09-19T16:02:17;29.30;99.90
42339;DHT22;27993;45.392;10.918;2023-09-19T16:04:47;29.20;99.90
42339;DHT22;27993;45.392;10.918;2023-09-19T16:07:18;29.30;99.90
42339;DHT22;27993;45.392;10.918;2023-09-19T16:09:49;29.30;99.90
42339;DHT22;27993;45.392;10.918;2023-09-19T16:12:20;29.20;99.90
42339;DHT22;27993;45.392;10.918;2023-09-19T16:14:50;29.20;99.80
42339;DHT22;27993;45.392;10.918;2023-09-19T16:17:21;29.20;99.90
42339;DHT22;27993;45.392;10.918;2023-09-19T16:19:52;29.10;99.90
42339;DHT22;27993;45.392;10.918;2023-09-19T16:22:22;29.10;99.90